sensor_id;sensor_type;location;lat;lon;timestamp;pressure;altitude;pressure_sealevel;temperature;humidity
24440;BME280;12618;54.386;18.394;2024-02-14T00:00:18;99949.27;;;2.76;100.00
24440;BME280;12618;54.386;18.394;2024-02-14T00:02:50;99948.64;;;2.71;100.00
24440;BME280;12618;54.386;18.394;2024-02-14T00:05:23;99949.08;;;2.64;100.00
24440;BME280;12618;54.386;18.394;2024-02-14T00:07:54;99945.64;;;2.59;100.00
24440;BME280;12618;54.386;18.394;2024-02-14T00:10:26;99947.11;;;2.53;100.00
24440;BME280;12618;54.386;18.394;2024-02-14T00:12:58;99946.81;;;2.48;100.00
24440;BME280;12618;54.386;18.394;2024-02-14T00:15:30;99947.23;;;2.43;100.00
24440;BME280;12618;54.386;18.394;2024-02-14T00:18:02;99946.77;;;2.36;100.00
24440;BME280;12618;54.386;18.394;2024-02-14T00:20:34;99948.44;;;2.27;100.00
24440;BME280;12618;54.386;18.394;2024-02-14T00:23:05;99945.89;;;2.22;100.00
24440;BME280;12618;54.386;18.394;2024-02-14T00:25:37;99948.92;;;2.14;100.00
24440;BME280;12618;54.386;18.394;2024-02-14T00:28:09;99946.39;;;2.07;100.00
24440;BME280;12618;54.386;18.394;2024-02-14T00:30:41;99948.36;;;2.00;100.00
24440;BME280;12618;54.386;18.394;2024-02-14T00:33:13;99951.54;;;1.96;100.00
24440;BME280;12618;54.386;18.394;2024-02-14T00:35:45;99955.05;;;1.91;100.00
24440;BME280;12618;54.386;18.394;2024-02-14T00:38:17;99959.27;;;1.85;100.00
24440;BME280;12618;54.386;18.394;2024-02-14T00:40:49;99956.04;;;1.76;100.00
24440;BME280;12618;54.386;18.394;2024-02-14T00:43:20;99957.98;;;1.72;100.00
24440;BME280;12618;54.386;18.394;2024-02-14T00:45:52;99958.17;;;1.68;100.00
24440;BME280;12618;54.386;18.394;2024-02-14T00:48:24;99953.20;;;1.65;100.00
24440;BME280;12618;54.386;18.394;2024-02-14T00:50:56;99953.56;;;1.62;100.00
24440;BME280;12618;54.386;18.394;2024-02-14T00:53:28;99958.77;;;1.59;100.00
24440;BME280;12618;54.386;18.394;2024-02-14T00:56:00;99954.30;;;1.56;100.00
24440;BME280;12618;54.386;18.394;2024-02-14T00:58:31;99955.69;;;1.55;100.00
24440;BME280;12618;54.386;18.394;2024-02-14T01:01:03;99957.28;;;1.51;100.00
24440;BME280;12618;54.386;18.394;2024-02-14T01:03:35;99961.46;;;1.49;100.00
24440;BME280;12618;54.386;18.394;2024-02-14T01:06:07;99964.06;;;1.47;100.00
24440;BME280;12618;54.386;18.394;2024-02-14T01:08:38;99963.39;;;1.44;100.00
24440;BME280;12618;54.386;18.394;2024-02-14T01:11:10;99962.04;;;1.42;100.00
24440;BME280;12618;54.386;18.394;2024-02-14T01:13:42;99955.27;;;1.42;100.00
24440;BME280;12618;54.386;18.394;2024-02-14T01:16:14;99959.75;;;1.44;100.00
24440;BME280;12618;54.386;18.394;2024-02-14T01:18:45;99959.59;;;1.44;100.00
24440;BME280;12618;54.386;18.394;2024-02-14T01:21:17;99960.62;;;1.44;100.00
24440;BME280;12618;54.386;18.394;2024-02-14T01:23:49;99957.48;;;1.44;100.00
24440;BME280;12618;54.386;18.394;2024-02-14T01:26:21;99959.05;;;1.45;100.00
24440;BME280;12618;54.386;18.394;2024-02-14T01:28:53;99953.67;;;1.45;100.00
24440;BME280;12618;54.386;18.394;2024-02-14T01:31:24;99956.82;;;1.43;100.00
24440;BME280;12618;54.386;18.394;2024-02-14T01:33:56;99954.08;;;1.40;100.00
24440;BME280;12618;54.386;18.394;2024-02-14T01:36:29;99953.23;;;1.36;100.00
24440;BME280;12618;54.386;18.394;2024-02-14T01:39:01;99952.03;;;1.33;100.00
24440;BME280;12618;54.386;18.394;2024-02-14T01:41:33;99956.05;;;1.29;100.00
24440;BME280;12618;54.386;18.394;2024-02-14T01:44:05;99959.88;;;1.26;100.00
24440;BME280;12618;54.386;18.394;2024-02-14T01:46:37;99956.61;;;1.22;100.00
24440;BME280;12618;54.386;18.394;2024-02-14T01:49:12;99957.81;;;1.22;100.00
24440;BME280;12618;54.386;18.394;2024-02-14T01:51:46;99956.46;;;1.19;100.00
24440;BME280;12618;54.386;18.394;2024-02-14T01:54:18;99958.04;;;1.17;100.00
24440;BME280;12618;54.386;18.394;2024-02-14T01:56:50;99962.73;;;1.14;100.00
24440;BME280;12618;54.386;18.394;2024-02-14T01:59:23;99962.91;;;1.11;100.00
24440;BME280;12618;54.386;18.394;2024-02-14T02:01:55;99966.75;;;1.09;100.00
24440;BME280;12618;54.386;18.394;2024-02-14T02:04:27;99970.92;;;1.04;100.00
24440;BME280;12618;54.386;18.394;2024-02-14T02:06:59;99968.52;;;1.00;100.00
24440;BME280;12618;54.386;18.394;2024-02-14T02:09:30;99974.61;;;0.97;100.00
24440;BME280;12618;54.386;18.394;2024-02-14T02:12:04;99975.66;;;0.93;100.00
24440;BME280;12618;54.386;18.394;2024-02-14T02:14:39;99977.44;;;0.85;100.00
24440;BME280;12618;54.386;18.394;2024-02-14T02:17:11;99978.14;;;0.79;100.00
24440;BME280;12618;54.386;18.394;2024-02-14T02:19:43;99979.56;;;0.74;100.00
24440;BME280;12618;54.386;18.394;2024-02-14T02:22:15;99975.58;;;0.72;100.00
24440;BME280;12618;54.386;18.394;2024-02-14T02:24:47;99974.38;;;0.67;100.00
24440;BME280;12618;54.386;18.394;2024-02-14T02:27:19;99974.06;;;0.62;100.00
24440;BME280;12618;54.386;18.394;2024-02-14T02:29:51;99974.41;;;0.60;100.00
24440;BME280;12618;54.386;18.394;2024-02-14T02:32:23;99973.89;;;0.59;100.00
24440;BME280;12618;54.386;18.394;2024-02-14T02:34:54;99971.98;;;0.60;100.00
24440;BME280;12618;54.386;18.394;2024-02-14T02:37:27;99979.95;;;0.60;100.00
24440;BME280;12618;54.386;18.394;2024-02-14T02:40:01;99979.79;;;0.56;100.00
24440;BME280;12618;54.386;18.394;2024-02-14T02:42:33;99984.66;;;0.52;100.00
24440;BME280;12618;54.386;18.394;2024-02-14T02:45:06;99987.43;;;0.52;100.00
24440;BME280;12618;54.386;18.394;2024-02-14T02:47:37;99978.77;;;0.49;100.00
24440;BME280;12618;54.386;18.394;2024-02-14T02:50:09;99984.31;;;0.48;100.00
24440;BME280;12618;54.386;18.394;2024-02-14T02:52:41;99981.38;;;0.48;100.00
24440;BME280;12618;54.386;18.394;2024-02-14T02:55:13;99975.66;;;0.48;100.00
24440;BME280;12618;54.386;18.394;2024-02-14T02:57:46;99982.07;;;0.46;100.00
24440;BME280;12618;54.386;18.394;2024-02-14T03:00:18;99991.61;;;0.44;100.00
24440;BME280;12618;54.386;18.394;2024-02-14T03:02:53;99998.02;;;0.44;100.00
24440;BME280;12618;54.386;18.394;2024-02-14T03:05:25;99996.80;;;0.44;100.00
24440;BME280;12618;54.386;18.394;2024-02-14T03:07:57;99998.86;;;0.45;100.00
24440;BME280;12618;54.386;18.394;2024-02-14T03:10:30;99996.77;;;0.48;100.00
24440;BME280;12618;54.386;18.394;2024-02-14T03:13:02;99995.91;;;0.52;100.00
24440;BME280;12618;54.386;18.394;2024-02-14T03:15:34;99996.41;;;0.56;100.00
24440;BME280;12618;54.386;18.394;2024-02-14T03:18:07;100001.94;;;0.61;100.00
24440;BME280;12618;54.386;18.394;2024-02-14T03:20:41;100000.03;;;0.64;100.00
24440;BME280;12618;54.386;18.394;2024-02-14T03:23:13;100000.20;;;0.65;100.00
24440;BME280;12618;54.386;18.394;2024-02-14T03:25:46;99998.65;;;0.64;100.00
24440;BME280;12618;54.386;18.394;2024-02-14T03:28:17;100001.42;;;0.65;100.00
24440;BME280;12618;54.386;18.394;2024-02-14T03:30:49;99995.88;;;0.65;100.00
24440;BME280;12618;54.386;18.394;2024-02-14T03:33:21;99999.52;;;0.64;100.00
24440;BME280;12618;54.386;18.394;2024-02-14T03:35:53;99994.83;;;0.67;100.00
24440;BME280;12618;54.386;18.394;2024-02-14T03:38:28;99989.61;;;0.71;100.00
24440;BME280;12618;54.386;18.394;2024-02-14T03:41:02;99988.54;;;0.77;100.00
24440;BME280;12618;54.386;18.394;2024-02-14T03:43:34;99989.56;;;0.81;100.00
24440;BME280;12618;54.386;18.394;2024-02-14T03:46:06;99989.56;;;0.85;100.00
24440;BME280;12618;54.386;18.394;2024-02-14T03:48:38;99989.52;;;0.93;100.00
24440;BME280;12618;54.386;18.394;2024-02-14T03:51:10;100000.77;;;0.94;100.00
24440;BME280;12618;54.386;18.394;2024-02-14T03:53:42;99999.56;;;0.94;100.00
24440;BME280;12618;54.386;18.394;2024-02-14T03:56:14;100000.77;;;0.99;100.00
24440;BME280;12618;54.386;18.394;2024-02-14T03:58:47;100000.55;;;1.01;100.00
24440;BME280;12618;54.386;18.394;2024-02-14T04:01:19;99999.52;;;1.03;100.00
24440;BME280;12618;54.386;18.394;2024-02-14T04:03:51;99999.50;;;1.08;100.00
24440;BME280;12618;54.386;18.394;2024-02-14T04:06:23;99999.13;;;1.13;100.00
24440;BME280;12618;54.386;18.394;2024-02-14T04:08:58;99996.33;;;1.18;100.00
24440;BME280;12618;54.386;18.394;2024-02-14T04:11:30;99996.33;;;1.17;100.00
24440;BME280;12618;54.386;18.394;2024-02-14T04:14:02;99994.77;;;1.17;100.00
24440;BME280;12618;54.386;18.394;2024-02-14T04:16:34;99994.04;;;1.23;100.00
24440;BME280;12618;54.386;18.394;2024-02-14T04:19:07;99993.84;;;1.26;100.00
24440;BME280;12618;54.386;18.394;2024-02-14T04:21:40;99991.77;;;1.27;100.00
24440;BME280;12618;54.386;18.394;2024-02-14T04:24:12;99991.93;;;1.28;100.00
24440;BME280;12618;54.386;18.394;2024-02-14T04:26:44;99994.86;;;1.32;100.00
24440;BME280;12618;54.386;18.394;2024-02-14T04:29:16;99994.99;;;1.38;100.00
24440;BME280;12618;54.386;18.394;2024-02-14T04:31:47;99995.85;;;1.40;100.00
24440;BME280;12618;54.386;18.394;2024-02-14T04:34:20;99992.71;;;1.42;100.00
24440;BME280;12618;54.386;18.394;2024-02-14T04:36:53;99994.27;;;1.43;100.00
24440;BME280;12618;54.386;18.394;2024-02-14T04:39:24;99994.79;;;1.43;100.00
24440;BME280;12618;54.386;18.394;2024-02-14T04:41:56;99991.17;;;1.40;100.00
24440;BME280;12618;54.386;18.394;2024-02-14T04:44:33;99992.73;;;1.39;100.00
24440;BME280;12618;54.386;18.394;2024-02-14T04:47:06;99996.02;;;1.39;100.00
24440;BME280;12618;54.386;18.394;2024-02-14T04:49:37;99994.13;;;1.38;100.00
24440;BME280;12618;54.386;18.394;2024-02-14T04:52:09;99995.16;;;1.38;100.00
24440;BME280;12618;54.386;18.394;2024-02-14T04:54:41;99989.80;;;1.37;100.00
24440;BME280;12618;54.386;18.394;2024-02-14T04:57:13;99989.61;;;1.37;100.00
24440;BME280;12618;54.386;18.394;2024-02-14T04:59:45;99991.02;;;1.36;100.00
24440;BME280;12618;54.386;18.394;2024-02-14T05:02:17;99992.91;;;1.36;100.00
24440;BME280;12618;54.386;18.394;2024-02-14T05:04:49;99989.45;;;1.35;100.00
24440;BME280;12618;54.386;18.394;2024-02-14T05:07:21;99996.03;;;1.36;100.00
24440;BME280;12618;54.386;18.394;2024-02-14T05:09:52;99994.13;;;1.37;100.00
24440;BME280;12618;54.386;18.394;2024-02-14T05:12:26;99996.02;;;1.40;100.00
24440;BME280;12618;54.386;18.394;2024-02-14T05:14:59;99995.84;;;1.42;100.00
24440;BME280;12618;54.386;18.394;2024-02-14T05:17:30;99991.99;;;1.45;100.00
24440;BME280;12618;54.386;18.394;2024-02-14T05:20:06;99992.33;;;1.47;100.00
24440;BME280;12618;54.386;18.394;2024-02-14T05:22:41;99993.37;;;1.48;100.00
24440;BME280;12618;54.386;18.394;2024-02-14T05:25:13;99992.66;;;1.50;100.00
24440;BME280;12618;54.386;18.394;2024-02-14T05:27:45;99995.27;;;1.50;100.00
24440;BME280;12618;54.386;18.394;2024-02-14T05:30:18;99991.63;;;1.50;100.00
24440;BME280;12618;54.386;18.394;2024-02-14T05:32:50;99993.36;;;1.50;100.00
24440;BME280;12618;54.386;18.394;2024-02-14T05:35:24;99989.02;;;1.50;100.00
24440;BME280;12618;54.386;18.394;2024-02-14T05:37:56;99990.23;;;1.50;100.00
24440;BME280;12618;54.386;18.394;2024-02-14T05:40:28;99995.27;;;1.51;100.00
24440;BME280;12618;54.386;18.394;2024-02-14T05:42:59;99993.35;;;1.52;100.00
24440;BME280;12618;54.386;18.394;2024-02-14T05:45:31;99999.24;;;1.52;100.00
24440;BME280;12618;54.386;18.394;2024-02-14T05:48:03;100002.20;;;1.52;100.00
24440;BME280;12618;54.386;18.394;2024-02-14T05:50:35;100001.33;;;1.52;100.00
24440;BME280;12618;54.386;18.394;2024-02-14T05:53:07;100005.49;;;1.52;100.00
24440;BME280;12618;54.386;18.394;2024-02-14T05:55:39;100005.84;;;1.51;100.00
24440;BME280;12618;54.386;18.394;2024-02-14T05:58:11;100008.44;;;1.51;100.00
24440;BME280;12618;54.386;18.394;2024-02-14T06:00:43;100009.48;;;1.51;100.00
24440;BME280;12618;54.386;18.394;2024-02-14T06:03:15;100012.77;;;1.52;100.00
24440;BME280;12618;54.386;18.394;2024-02-14T06:05:47;100010.00;;;1.52;100.00
24440;BME280;12618;54.386;18.394;2024-02-14T06:08:18;100007.74;;;1.53;100.00
24440;BME280;12618;54.386;18.394;2024-02-14T06:10:50;100007.02;;;1.55;100.00
24440;BME280;12618;54.386;18.394;2024-02-14T06:13:22;100008.20;;;1.57;100.00
24440;BME280;12618;54.386;18.394;2024-02-14T06:15:54;100010.46;;;1.60;100.00
24440;BME280;12618;54.386;18.394;2024-02-14T06:18:25;100018.42;;;1.62;100.00
24440;BME280;12618;54.386;18.394;2024-02-14T06:20:57;100023.27;;;1.62;100.00
24440;BME280;12618;54.386;18.394;2024-02-14T06:23:29;100021.54;;;1.64;100.00
24440;BME280;12618;54.386;18.394;2024-02-14T06:26:01;100021.84;;;1.67;100.00
24440;BME280;12618;54.386;18.394;2024-02-14T06:28:33;100021.84;;;1.66;100.00
24440;BME280;12618;54.386;18.394;2024-02-14T06:31:04;100030.52;;;1.67;100.00
24440;BME280;12618;54.386;18.394;2024-02-14T06:33:36;100026.52;;;1.69;100.00
24440;BME280;12618;54.386;18.394;2024-02-14T06:36:08;100027.03;;;1.71;100.00
24440;BME280;12618;54.386;18.394;2024-02-14T06:38:40;100023.02;;;1.74;100.00
24440;BME280;12618;54.386;18.394;2024-02-14T06:41:12;100027.80;;;1.81;100.00
24440;BME280;12618;54.386;18.394;2024-02-14T06:43:44;100027.94;;;1.88;100.00
24440;BME280;12618;54.386;18.394;2024-02-14T06:46:16;100032.40;;;1.94;100.00
24440;BME280;12618;54.386;18.394;2024-02-14T06:48:47;100029.41;;;1.99;100.00
24440;BME280;12618;54.386;18.394;2024-02-14T06:51:19;100035.96;;;2.04;100.00
24440;BME280;12618;54.386;18.394;2024-02-14T06:53:51;100042.55;;;2.05;100.00
24440;BME280;12618;54.386;18.394;2024-02-14T06:56:23;100040.12;;;2.07;100.00
24440;BME280;12618;54.386;18.394;2024-02-14T06:58:55;100041.27;;;2.11;100.00
24440;BME280;12618;54.386;18.394;2024-02-14T07:01:32;100039.31;;;2.20;100.00
24440;BME280;12618;54.386;18.394;2024-02-14T07:04:04;100031.63;;;2.25;100.00
24440;BME280;12618;54.386;18.394;2024-02-14T07:06:36;100031.58;;;2.29;100.00
24440;BME280;12618;54.386;18.394;2024-02-14T07:09:08;100027.33;;;2.38;100.00
24440;BME280;12618;54.386;18.394;2024-02-14T07:11:43;100025.71;;;2.43;100.00
24440;BME280;12618;54.386;18.394;2024-02-14T07:14:17;100024.79;;;2.50;100.00
24440;BME280;12618;54.386;18.394;2024-02-14T07:16:48;100029.30;;;2.51;100.00
24440;BME280;12618;54.386;18.394;2024-02-14T07:19:20;100022.63;;;2.56;100.00
24440;BME280;12618;54.386;18.394;2024-02-14T07:21:52;100027.09;;;2.62;100.00
24440;BME280;12618;54.386;18.394;2024-02-14T07:24:24;100022.34;;;2.67;100.00
24440;BME280;12618;54.386;18.394;2024-02-14T07:26:55;100021.39;;;2.74;100.00
24440;BME280;12618;54.386;18.394;2024-02-14T07:29:28;100022.70;;;2.80;100.00
24440;BME280;12618;54.386;18.394;2024-02-14T07:32:02;100021.41;;;2.87;100.00
24440;BME280;12618;54.386;18.394;2024-02-14T07:34:33;100021.35;;;2.93;100.00
24440;BME280;12618;54.386;18.394;2024-02-14T07:37:05;100025.62;;;2.98;100.00
24440;BME280;12618;54.386;18.394;2024-02-14T07:39:37;100026.96;;;3.02;100.00
24440;BME280;12618;54.386;18.394;2024-02-14T07:42:09;100029.72;;;3.05;100.00
24440;BME280;12618;54.386;18.394;2024-02-14T07:44:40;100031.05;;;3.09;100.00
24440;BME280;12618;54.386;18.394;2024-02-14T07:47:12;100029.46;;;3.11;100.00
24440;BME280;12618;54.386;18.394;2024-02-14T07:49:44;100030.98;;;3.15;100.00
24440;BME280;12618;54.386;18.394;2024-02-14T07:52:16;100031.30;;;3.17;100.00
24440;BME280;12618;54.386;18.394;2024-02-14T07:54:51;100030.91;;;3.20;100.00
24440;BME280;12618;54.386;18.394;2024-02-14T07:57:23;100034.01;;;3.22;100.00
24440;BME280;12618;54.386;18.394;2024-02-14T07:59:55;100035.33;;;3.28;100.00
24440;BME280;12618;54.386;18.394;2024-02-14T08:02:27;100034.73;;;3.33;100.00
24440;BME280;12618;54.386;18.394;2024-02-14T08:04:59;100032.23;;;3.38;100.00
24440;BME280;12618;54.386;18.394;2024-02-14T08:07:31;100030.63;;;3.42;100.00
24440;BME280;12618;54.386;18.394;2024-02-14T08:10:03;100029.70;;;3.44;100.00
24440;BME280;12618;54.386;18.394;2024-02-14T08:12:36;100024.23;;;3.51;100.00
24440;BME280;12618;54.386;18.394;2024-02-14T08:15:08;100028.05;;;3.63;100.00
24440;BME280;12618;54.386;18.394;2024-02-14T08:17:40;100023.55;;;3.73;100.00
24440;BME280;12618;54.386;18.394;2024-02-14T08:20:16;100027.88;;;3.86;100.00
24440;BME280;12618;54.386;18.394;2024-02-14T08:22:50;100031.17;;;3.98;100.00
24440;BME280;12618;54.386;18.394;2024-02-14T08:25:22;100031.85;;;4.09;100.00
24440;BME280;12618;54.386;18.394;2024-02-14T08:27:54;100032.02;;;4.21;100.00
24440;BME280;12618;54.386;18.394;2024-02-14T08:30:26;100032.73;;;4.29;100.00
24440;BME280;12618;54.386;18.394;2024-02-14T08:32:58;100036.20;;;4.40;100.00
24440;BME280;12618;54.386;18.394;2024-02-14T08:35:30;100039.84;;;4.51;100.00
24440;BME280;12618;54.386;18.394;2024-02-14T08:38:04;100039.44;;;4.63;100.00
24440;BME280;12618;54.386;18.394;2024-02-14T08:40:35;100037.02;;;4.71;100.00
24440;BME280;12618;54.386;18.394;2024-02-14T08:43:08;100040.52;;;4.80;100.00
24440;BME280;12618;54.386;18.394;2024-02-14T08:45:40;100043.67;;;4.88;100.00
24440;BME280;12618;54.386;18.394;2024-02-14T08:48:12;100048.23;;;4.95;100.00
24440;BME280;12618;54.386;18.394;2024-02-14T08:50:44;100049.98;;;5.04;100.00
24440;BME280;12618;54.386;18.394;2024-02-14T08:53:17;100048.23;;;5.12;100.00
24440;BME280;12618;54.386;18.394;2024-02-14T08:55:49;100049.32;;;5.20;100.00
24440;BME280;12618;54.386;18.394;2024-02-14T08:58:21;100051.60;;;5.27;100.00
24440;BME280;12618;54.386;18.394;2024-02-14T09:00:53;100048.73;;;5.30;100.00
24440;BME280;12618;54.386;18.394;2024-02-14T09:03:39;100050.80;;;5.32;100.00
24440;BME280;12618;54.386;18.394;2024-02-14T09:06:11;100045.77;;;5.39;100.00
24440;BME280;12618;54.386;18.394;2024-02-14T09:08:43;100050.71;;;5.44;100.00
24440;BME280;12618;54.386;18.394;2024-02-14T09:11:15;100051.86;;;5.47;100.00
24440;BME280;12618;54.386;18.394;2024-02-14T09:13:47;100050.15;;;5.53;100.00
24440;BME280;12618;54.386;18.394;2024-02-14T09:16:20;100052.09;;;5.53;100.00
24440;BME280;12618;54.386;18.394;2024-02-14T09:18:53;100051.08;;;5.51;100.00
24440;BME280;12618;54.386;18.394;2024-02-14T09:21:25;100055.06;;;5.52;100.00
24440;BME280;12618;54.386;18.394;2024-02-14T09:23:59;100053.14;;;5.61;100.00
24440;BME280;12618;54.386;18.394;2024-02-14T09:26:31;100055.02;;;5.62;100.00
24440;BME280;12618;54.386;18.394;2024-02-14T09:29:02;100054.87;;;5.69;100.00
24440;BME280;12618;54.386;18.394;2024-02-14T09:31:34;100050.98;;;5.78;100.00
24440;BME280;12618;54.386;18.394;2024-02-14T09:34:06;100048.88;;;5.87;100.00
24440;BME280;12618;54.386;18.394;2024-02-14T09:36:39;100053.06;;;5.96;100.00
24440;BME280;12618;54.386;18.394;2024-02-14T09:39:11;100050.50;;;6.08;100.00
24440;BME280;12618;54.386;18.394;2024-02-14T09:41:44;100054.70;;;6.15;100.00
24440;BME280;12618;54.386;18.394;2024-02-14T09:44:18;100051.80;;;6.18;100.00
24440;BME280;12618;54.386;18.394;2024-02-14T09:46:50;100045.81;;;6.28;100.00
24440;BME280;12618;54.386;18.394;2024-02-14T09:49:22;100045.72;;;6.38;100.00
24440;BME280;12618;54.386;18.394;2024-02-14T09:51:55;100046.93;;;6.45;100.00
24440;BME280;12618;54.386;18.394;2024-02-14T09:54:28;100046.48;;;6.63;100.00
24440;BME280;12618;54.386;18.394;2024-02-14T09:57:02;100045.83;;;6.68;100.00
24440;BME280;12618;54.386;18.394;2024-02-14T09:59:35;100043.02;;;6.75;100.00
24440;BME280;12618;54.386;18.394;2024-02-14T10:02:07;100039.96;;;6.84;100.00
24440;BME280;12618;54.386;18.394;2024-02-14T10:04:39;100043.22;;;6.86;100.00
24440;BME280;12618;54.386;18.394;2024-02-14T10:07:11;100043.91;;;6.93;100.00
24440;BME280;12618;54.386;18.394;2024-02-14T10:09:43;100045.34;;;6.98;100.00
24440;BME280;12618;54.386;18.394;2024-02-14T10:12:15;100044.16;;;7.02;100.00
24440;BME280;12618;54.386;18.394;2024-02-14T10:14:47;100044.45;;;7.10;100.00
24440;BME280;12618;54.386;18.394;2024-02-14T10:17:19;100050.40;;;7.17;100.00
24440;BME280;12618;54.386;18.394;2024-02-14T10:20:01;100055.63;;;7.17;100.00
24440;BME280;12618;54.386;18.394;2024-02-14T10:22:37;100052.91;;;7.09;100.00
24440;BME280;12618;54.386;18.394;2024-02-14T10:25:10;100053.95;;;7.08;100.00
24440;BME280;12618;54.386;18.394;2024-02-14T10:27:42;100049.83;;;7.12;100.00
24440;BME280;12618;54.386;18.394;2024-02-14T10:30:14;100046.20;;;7.10;100.00
24440;BME280;12618;54.386;18.394;2024-02-14T10:32:46;100041.27;;;7.12;100.00
24440;BME280;12618;54.386;18.394;2024-02-14T10:35:21;100043.70;;;7.13;100.00
24440;BME280;12618;54.386;18.394;2024-02-14T10:37:53;100042.69;;;7.11;100.00
24440;BME280;12618;54.386;18.394;2024-02-14T10:40:32;100040.77;;;7.11;100.00
24440;BME280;12618;54.386;18.394;2024-02-14T10:43:08;100040.01;;;7.07;100.00
24440;BME280;12618;54.386;18.394;2024-02-14T10:45:44;100037.88;;;7.14;100.00
24440;BME280;12618;54.386;18.394;2024-02-14T10:48:17;100036.90;;;7.17;100.00
24440;BME280;12618;54.386;18.394;2024-02-14T10:50:50;100038.67;;;7.17;100.00
24440;BME280;12618;54.386;18.394;2024-02-14T10:53:25;100040.87;;;7.13;100.00
24440;BME280;12618;54.386;18.394;2024-02-14T10:55:57;100040.97;;;7.10;100.00
24440;BME280;12618;54.386;18.394;2024-02-14T10:58:30;100034.05;;;7.07;100.00
24440;BME280;12618;54.386;18.394;2024-02-14T11:01:04;100031.45;;;7.01;100.00
24440;BME280;12618;54.386;18.394;2024-02-14T11:03:39;100031.98;;;7.00;100.00
24440;BME280;12618;54.386;18.394;2024-02-14T11:06:16;100030.95;;;6.99;100.00
24440;BME280;12618;54.386;18.394;2024-02-14T11:09:00;100028.23;;;7.03;100.00
24440;BME280;12618;54.386;18.394;2024-02-14T11:11:33;100027.88;;;7.09;100.00
24440;BME280;12618;54.386;18.394;2024-02-14T11:14:06;100028.89;;;7.10;100.00
24440;BME280;12618;54.386;18.394;2024-02-14T11:16:37;100024.04;;;7.08;100.00
24440;BME280;12618;54.386;18.394;2024-02-14T11:19:10;100027.86;;;7.09;100.00
24440;BME280;12618;54.386;18.394;2024-02-14T11:21:45;100029.45;;;7.15;100.00
24440;BME280;12618;54.386;18.394;2024-02-14T11:24:18;100024.36;;;7.16;100.00
24440;BME280;12618;54.386;18.394;2024-02-14T11:26:51;100022.30;;;7.20;100.00
24440;BME280;12618;54.386;18.394;2024-02-14T11:29:30;100022.69;;;7.19;100.00
24440;BME280;12618;54.386;18.394;2024-02-14T11:32:03;100017.54;;;7.21;100.00
24440;BME280;12618;54.386;18.394;2024-02-14T11:34:37;100017.58;;;7.19;100.00
24440;BME280;12618;54.386;18.394;2024-02-14T11:37:10;100014.96;;;7.19;100.00
24440;BME280;12618;54.386;18.394;2024-02-14T11:39:41;100004.00;;;7.23;100.00
24440;BME280;12618;54.386;18.394;2024-02-14T11:42:14;100002.73;;;7.25;100.00
24440;BME280;12618;54.386;18.394;2024-02-14T11:44:46;100003.95;;;7.25;100.00
24440;BME280;12618;54.386;18.394;2024-02-14T11:47:17;99998.09;;;7.28;100.00
24440;BME280;12618;54.386;18.394;2024-02-14T11:49:49;99998.58;;;7.24;100.00
24440;BME280;12618;54.386;18.394;2024-02-14T11:52:22;99991.80;;;7.22;100.00
24440;BME280;12618;54.386;18.394;2024-02-14T11:54:54;99992.75;;;7.25;100.00
24440;BME280;12618;54.386;18.394;2024-02-14T11:57:26;99990.31;;;7.25;100.00
24440;BME280;12618;54.386;18.394;2024-02-14T11:59:58;99986.03;;;7.21;100.00
24440;BME280;12618;54.386;18.394;2024-02-14T12:02:29;99987.27;;;7.21;100.00
24440;BME280;12618;54.386;18.394;2024-02-14T12:05:02;99987.09;;;7.21;100.00
24440;BME280;12618;54.386;18.394;2024-02-14T12:07:36;99982.39;;;7.26;100.00
24440;BME280;12618;54.386;18.394;2024-02-14T12:10:09;99987.04;;;7.28;100.00
24440;BME280;12618;54.386;18.394;2024-02-14T12:12:45;99985.30;;;7.28;100.00
24440;BME280;12618;54.386;18.394;2024-02-14T12:15:16;99982.64;;;7.29;100.00
24440;BME280;12618;54.386;18.394;2024-02-14T12:17:48;99980.89;;;7.24;100.00
24440;BME280;12618;54.386;18.394;2024-02-14T12:20:24;99987.73;;;7.17;100.00
24440;BME280;12618;54.386;18.394;2024-02-14T12:22:55;99983.92;;;7.10;100.00
24440;BME280;12618;54.386;18.394;2024-02-14T12:25:29;99978.81;;;7.11;100.00
24440;BME280;12618;54.386;18.394;2024-02-14T12:28:01;99977.86;;;7.19;100.00
24440;BME280;12618;54.386;18.394;2024-02-14T12:31:02;99975.27;;;7.42;100.00
24440;BME280;12618;54.386;18.394;2024-02-14T12:33:34;99970.60;;;7.57;100.00
24440;BME280;12618;54.386;18.394;2024-02-14T12:36:06;99968.85;;;7.62;100.00
24440;BME280;12618;54.386;18.394;2024-02-14T12:38:38;99962.13;;;7.80;100.00
24440;BME280;12618;54.386;18.394;2024-02-14T12:41:10;99959.36;;;8.00;100.00
24440;BME280;12618;54.386;18.394;2024-02-14T12:43:42;99957.19;;;8.23;100.00
24440;BME280;12618;54.386;18.394;2024-02-14T12:46:14;99956.25;;;8.41;100.00
24440;BME280;12618;54.386;18.394;2024-02-14T12:48:45;99962.45;;;8.49;100.00
24440;BME280;12618;54.386;18.394;2024-02-14T12:51:17;99957.13;;;8.56;100.00
24440;BME280;12618;54.386;18.394;2024-02-14T12:53:49;99960.63;;;8.56;100.00
24440;BME280;12618;54.386;18.394;2024-02-14T12:56:21;99958.91;;;8.50;100.00
24440;BME280;12618;54.386;18.394;2024-02-14T12:58:53;99955.84;;;8.57;100.00
24440;BME280;12618;54.386;18.394;2024-02-14T13:01:25;99951.69;;;8.70;100.00
24440;BME280;12618;54.386;18.394;2024-02-14T13:03:57;99947.17;;;8.83;100.00
24440;BME280;12618;54.386;18.394;2024-02-14T13:06:28;99951.11;;;8.95;100.00
24440;BME280;12618;54.386;18.394;2024-02-14T13:09:00;99954.06;;;8.92;100.00
24440;BME280;12618;54.386;18.394;2024-02-14T13:11:33;99953.23;;;8.90;100.00